sensor_id;sensor_type;location;lat;lon;timestamp;temperature;humidity
21425;DHT22;10873;51.132;16.848;2024-02-04T00:01:10;24.00;53.60
21425;DHT22;10873;51.132;16.848;2024-02-04T00:03:58;24.00;53.60
21425;DHT22;10873;51.132;16.848;2024-02-04T00:06:26;24.00;53.60
21425;DHT22;10873;51.132;16.848;2024-02-04T00:08:53;24.00;53.70
21425;DHT22;10873;51.132;16.848;2024-02-04T00:11:19;24.00;53.60
21425;DHT22;10873;51.132;16.848;2024-02-04T00:13:47;24.00;53.60
21425;DHT22;10873;51.132;16.848;2024-02-04T00:16:16;24.00;53.60
21425;DHT22;10873;51.132;16.848;2024-02-04T00:18:46;24.00;53.60
21425;DHT22;10873;51.132;16.848;2024-02-04T00:21:16;24.00;53.50
21425;DHT22;10873;51.132;16.848;2024-02-04T00:23:48;24.00;53.40
21425;DHT22;10873;51.132;16.848;2024-02-04T00:26:14;24.00;53.40
21425;DHT22;10873;51.132;16.848;2024-02-04T00:28:40;24.00;53.40
21425;DHT22;10873;51.132;16.848;2024-02-04T00:31:08;23.90;53.20
21425;DHT22;10873;51.132;16.848;2024-02-04T00:33:36;23.90;53.20
21425;DHT22;10873;51.132;16.848;2024-02-04T00:36:02;23.90;53.10
21425;DHT22;10873;51.132;16.848;2024-02-04T00:38:28;23.90;53.00
21425;DHT22;10873;51.132;16.848;2024-02-04T00:40:54;23.90;53.00
21425;DHT22;10873;51.132;16.848;2024-02-04T00:43:20;23.90;53.00
21425;DHT22;10873;51.132;16.848;2024-02-04T00:45:46;23.90;53.00
21425;DHT22;10873;51.132;16.848;2024-02-04T00:48:12;23.90;53.00
21425;DHT22;10873;51.132;16.848;2024-02-04T00:50:39;23.90;53.00
21425;DHT22;10873;51.132;16.848;2024-02-04T00:53:06;23.90;53.00
21425;DHT22;10873;51.132;16.848;2024-02-04T00:55:31;23.90;53.00
21425;DHT22;10873;51.132;16.848;2024-02-04T00:57:58;23.90;53.00
21425;DHT22;10873;51.132;16.848;2024-02-04T01:00:26;23.90;53.00
21425;DHT22;10873;51.132;16.848;2024-02-04T01:02:52;23.90;53.00
21425;DHT22;10873;51.132;16.848;2024-02-04T01:05:18;23.90;53.00
21425;DHT22;10873;51.132;16.848;2024-02-04T01:07:46;23.90;53.00
21425;DHT22;10873;51.132;16.848;2024-02-04T01:10:12;23.90;52.90
21425;DHT22;10873;51.132;16.848;2024-02-04T01:12:38;23.90;52.90
21425;DHT22;10873;51.132;16.848;2024-02-04T01:15:04;23.90;52.90
21425;DHT22;10873;51.132;16.848;2024-02-04T01:17:32;23.80;52.80
21425;DHT22;10873;51.132;16.848;2024-02-04T01:19:59;23.80;52.80
21425;DHT22;10873;51.132;16.848;2024-02-04T01:22:25;23.80;52.80
21425;DHT22;10873;51.132;16.848;2024-02-04T01:24:54;23.80;52.80
21425;DHT22;10873;51.132;16.848;2024-02-04T01:27:20;23.80;52.70
21425;DHT22;10873;51.132;16.848;2024-02-04T01:29:46;23.80;52.70
21425;DHT22;10873;51.132;16.848;2024-02-04T01:32:12;23.80;52.70
21425;DHT22;10873;51.132;16.848;2024-02-04T01:34:38;23.80;52.70
21425;DHT22;10873;51.132;16.848;2024-02-04T01:37:04;23.80;52.70
21425;DHT22;10873;51.132;16.848;2024-02-04T01:39:30;23.80;52.70
21425;DHT22;10873;51.132;16.848;2024-02-04T01:41:57;23.80;52.70
21425;DHT22;10873;51.132;16.848;2024-02-04T01:44:23;23.80;52.70
21425;DHT22;10873;51.132;16.848;2024-02-04T01:46:49;23.80;52.70
21425;DHT22;10873;51.132;16.848;2024-02-04T01:49:15;23.80;52.70
21425;DHT22;10873;51.132;16.848;2024-02-04T01:51:42;23.80;52.70
21425;DHT22;10873;51.132;16.848;2024-02-04T01:54:08;23.80;52.70
21425;DHT22;10873;51.132;16.848;2024-02-04T01:56:35;23.80;52.70
21425;DHT22;10873;51.132;16.848;2024-02-04T01:59:03;23.80;52.70
21425;DHT22;10873;51.132;16.848;2024-02-04T02:01:29;23.80;52.70
21425;DHT22;10873;51.132;16.848;2024-02-04T02:03:55;23.80;52.70
21425;DHT22;10873;51.132;16.848;2024-02-04T02:06:21;23.80;53.10
21425;DHT22;10873;51.132;16.848;2024-02-04T02:08:48;23.80;52.80
21425;DHT22;10873;51.132;16.848;2024-02-04T02:11:21;23.80;52.80
21425;DHT22;10873;51.132;16.848;2024-02-04T02:13:50;23.80;52.80
21425;DHT22;10873;51.132;16.848;2024-02-04T02:16:21;23.80;52.80
21425;DHT22;10873;51.132;16.848;2024-02-04T02:18:52;23.90;52.80
21425;DHT22;10873;51.132;16.848;2024-02-04T02:21:38;23.90;52.70
21425;DHT22;10873;51.132;16.848;2024-02-04T02:24:11;23.90;52.80
21425;DHT22;10873;51.132;16.848;2024-02-04T02:26:41;23.90;52.70
21425;DHT22;10873;51.132;16.848;2024-02-04T02:29:07;23.90;52.70
21425;DHT22;10873;51.132;16.848;2024-02-04T02:31:34;23.90;52.70
21425;DHT22;10873;51.132;16.848;2024-02-04T02:34:00;23.90;52.70
21425;DHT22;10873;51.132;16.848;2024-02-04T02:36:29;23.90;52.70
21425;DHT22;10873;51.132;16.848;2024-02-04T02:39:08;23.90;52.70
21425;DHT22;10873;51.132;16.848;2024-02-04T02:41:37;23.90;52.70
21425;DHT22;10873;51.132;16.848;2024-02-04T02:44:07;23.90;52.70
21425;DHT22;10873;51.132;16.848;2024-02-04T02:46:34;23.90;52.70
21425;DHT22;10873;51.132;16.848;2024-02-04T02:49:00;23.90;52.60
21425;DHT22;10873;51.132;16.848;2024-02-04T02:51:26;23.90;52.60
21425;DHT22;10873;51.132;16.848;2024-02-04T02:53:52;23.90;52.60
21425;DHT22;10873;51.132;16.848;2024-02-04T02:56:18;23.90;52.50
21425;DHT22;10873;51.132;16.848;2024-02-04T02:58:44;23.80;52.40
21425;DHT22;10873;51.132;16.848;2024-02-04T03:01:11;23.80;52.40
21425;DHT22;10873;51.132;16.848;2024-02-04T03:03:37;23.80;52.30
21425;DHT22;10873;51.132;16.848;2024-02-04T03:06:04;23.80;52.30
21425;DHT22;10873;51.132;16.848;2024-02-04T03:08:30;23.80;52.20
21425;DHT22;10873;51.132;16.848;2024-02-04T03:10:56;23.80;52.20
21425;DHT22;10873;51.132;16.848;2024-02-04T03:13:23;23.80;52.20
21425;DHT22;10873;51.132;16.848;2024-02-04T03:15:49;23.80;52.20
21425;DHT22;10873;51.132;16.848;2024-02-04T03:18:16;23.80;52.20
21425;DHT22;10873;51.132;16.848;2024-02-04T03:20:42;23.80;52.10
21425;DHT22;10873;51.132;16.848;2024-02-04T03:23:08;23.80;52.10
21425;DHT22;10873;51.132;16.848;2024-02-04T03:25:34;23.80;52.00
21425;DHT22;10873;51.132;16.848;2024-02-04T03:28:00;23.80;52.00
21425;DHT22;10873;51.132;16.848;2024-02-04T03:30:26;23.80;52.00
21425;DHT22;10873;51.132;16.848;2024-02-04T03:32:52;23.80;52.00
21425;DHT22;10873;51.132;16.848;2024-02-04T03:35:20;23.80;52.00
21425;DHT22;10873;51.132;16.848;2024-02-04T03:37:45;23.80;52.00
21425;DHT22;10873;51.132;16.848;2024-02-04T03:40:12;23.80;51.90
21425;DHT22;10873;51.132;16.848;2024-02-04T03:42:38;23.80;51.90
21425;DHT22;10873;51.132;16.848;2024-02-04T03:45:07;23.80;51.80
21425;DHT22;10873;51.132;16.848;2024-02-04T03:47:33;23.80;51.70
21425;DHT22;10873;51.132;16.848;2024-02-04T03:49:59;23.80;51.70
21425;DHT22;10873;51.132;16.848;2024-02-04T03:52:26;23.70;51.60
21425;DHT22;10873;51.132;16.848;2024-02-04T03:54:52;23.70;51.50
21425;DHT22;10873;51.132;16.848;2024-02-04T03:57:18;23.70;51.50
21425;DHT22;10873;51.132;16.848;2024-02-04T03:59:44;23.70;51.50
21425;DHT22;10873;51.132;16.848;2024-02-04T04:02:12;23.70;51.40
21425;DHT22;10873;51.132;16.848;2024-02-04T04:04:39;23.70;51.30
21425;DHT22;10873;51.132;16.848;2024-02-04T04:07:06;23.70;51.20
21425;DHT22;10873;51.132;16.848;2024-02-04T04:09:33;23.70;51.20
21425;DHT22;10873;51.132;16.848;2024-02-04T04:11:59;23.70;51.10
21425;DHT22;10873;51.132;16.848;2024-02-04T04:14:25;23.70;51.00
21425;DHT22;10873;51.132;16.848;2024-02-04T04:16:51;23.70;51.00
21425;DHT22;10873;51.132;16.848;2024-02-04T04:19:17;23.70;50.90
21425;DHT22;10873;51.132;16.848;2024-02-04T04:21:43;23.70;50.80
21425;DHT22;10873;51.132;16.848;2024-02-04T04:24:09;23.70;50.70
21425;DHT22;10873;51.132;16.848;2024-02-04T04:26:37;23.70;50.70
21425;DHT22;10873;51.132;16.848;2024-02-04T04:29:03;23.70;50.80
21425;DHT22;10873;51.132;16.848;2024-02-04T04:31:29;23.70;50.80
21425;DHT22;10873;51.132;16.848;2024-02-04T04:33:55;23.70;50.80
21425;DHT22;10873;51.132;16.848;2024-02-04T04:36:21;23.70;50.70
21425;DHT22;10873;51.132;16.848;2024-02-04T04:38:47;23.70;51.10
21425;DHT22;10873;51.132;16.848;2024-02-04T04:41:15;23.70;50.80
21425;DHT22;10873;51.132;16.848;2024-02-04T04:43:43;23.70;50.70
21425;DHT22;10873;51.132;16.848;2024-02-04T04:46:09;23.70;50.70
21425;DHT22;10873;51.132;16.848;2024-02-04T04:48:35;23.70;50.70
21425;DHT22;10873;51.132;16.848;2024-02-04T04:51:01;23.70;50.70
21425;DHT22;10873;51.132;16.848;2024-02-04T04:53:27;23.70;50.70
21425;DHT22;10873;51.132;16.848;2024-02-04T04:55:52;23.70;50.70
21425;DHT22;10873;51.132;16.848;2024-02-04T04:58:19;23.70;50.70
21425;DHT22;10873;51.132;16.848;2024-02-04T05:00:46;23.70;50.70
21425;DHT22;10873;51.132;16.848;2024-02-04T05:03:12;23.70;50.80
21425;DHT22;10873;51.132;16.848;2024-02-04T05:05:38;23.70;50.80
21425;DHT22;10873;51.132;16.848;2024-02-04T05:08:04;23.70;50.70
21425;DHT22;10873;51.132;16.848;2024-02-04T05:10:30;23.70;50.70
21425;DHT22;10873;51.132;16.848;2024-02-04T05:12:56;23.70;50.60
21425;DHT22;10873;51.132;16.848;2024-02-04T05:15:22;23.70;50.60
21425;DHT22;10873;51.132;16.848;2024-02-04T05:17:52;23.70;50.50
21425;DHT22;10873;51.132;16.848;2024-02-04T05:20:18;23.70;50.50
21425;DHT22;10873;51.132;16.848;2024-02-04T05:22:44;23.70;50.50
21425;DHT22;10873;51.132;16.848;2024-02-04T05:25:10;23.70;50.40
21425;DHT22;10873;51.132;16.848;2024-02-04T05:27:36;23.70;50.40
21425;DHT22;10873;51.132;16.848;2024-02-04T05:30:03;23.70;50.30
21425;DHT22;10873;51.132;16.848;2024-02-04T05:32:30;23.60;50.20
21425;DHT22;10873;51.132;16.848;2024-02-04T05:34:57;23.60;50.20
21425;DHT22;10873;51.132;16.848;2024-02-04T05:37:23;23.60;50.20
21425;DHT22;10873;51.132;16.848;2024-02-04T05:39:49;23.60;50.10
21425;DHT22;10873;51.132;16.848;2024-02-04T05:42:15;23.70;50.10
21425;DHT22;10873;51.132;16.848;2024-02-04T05:44:41;23.70;50.10
21425;DHT22;10873;51.132;16.848;2024-02-04T05:47:08;23.70;50.10
21425;DHT22;10873;51.132;16.848;2024-02-04T05:49:33;23.70;50.00
21425;DHT22;10873;51.132;16.848;2024-02-04T05:52:01;23.70;50.00
21425;DHT22;10873;51.132;16.848;2024-02-04T05:54:27;23.70;50.00
21425;DHT22;10873;51.132;16.848;2024-02-04T05:56:53;23.70;50.00
21425;DHT22;10873;51.132;16.848;2024-02-04T05:59:19;23.70;49.90
21425;DHT22;10873;51.132;16.848;2024-02-04T06:01:45;23.70;49.90
21425;DHT22;10873;51.132;16.848;2024-02-04T06:04:11;23.70;49.90
21425;DHT22;10873;51.132;16.848;2024-02-04T06:06:37;23.70;49.90
21425;DHT22;10873;51.132;16.848;2024-02-04T06:09:04;23.70;50.00
21425;DHT22;10873;51.132;16.848;2024-02-04T06:11:31;23.70;50.00
21425;DHT22;10873;51.132;16.848;2024-02-04T06:13:56;23.70;50.00
21425;DHT22;10873;51.132;16.848;2024-02-04T06:16:23;23.70;49.90
21425;DHT22;10873;51.132;16.848;2024-02-04T06:18:49;23.70;49.90
21425;DHT22;10873;51.132;16.848;2024-02-04T06:21:15;23.70;49.90
21425;DHT22;10873;51.132;16.848;2024-02-04T06:23:40;23.70;49.90
21425;DHT22;10873;51.132;16.848;2024-02-04T06:26:08;23.70;49.80
21425;DHT22;10873;51.132;16.848;2024-02-04T06:28:34;23.70;49.70
21425;DHT22;10873;51.132;16.848;2024-02-04T06:31:01;23.70;49.70
21425;DHT22;10873;51.132;16.848;2024-02-04T06:33:26;23.70;49.70
21425;DHT22;10873;51.132;16.848;2024-02-04T06:35:53;23.70;49.90
21425;DHT22;10873;51.132;16.848;2024-02-04T06:38:18;23.70;50.10
21425;DHT22;10873;51.132;16.848;2024-02-04T06:40:45;23.70;50.20
21425;DHT22;10873;51.132;16.848;2024-02-04T06:43:12;23.70;50.00
21425;DHT22;10873;51.132;16.848;2024-02-04T06:45:38;23.70;49.80
21425;DHT22;10873;51.132;16.848;2024-02-04T06:48:05;23.70;49.60
21425;DHT22;10873;51.132;16.848;2024-02-04T06:50:31;23.70;49.50
21425;DHT22;10873;51.132;16.848;2024-02-04T06:52:57;23.70;49.30
21425;DHT22;10873;51.132;16.848;2024-02-04T06:55:23;23.70;49.10
21425;DHT22;10873;51.132;16.848;2024-02-04T06:57:49;23.70;49.00
21425;DHT22;10873;51.132;16.848;2024-02-04T07:00:17;23.70;48.90
21425;DHT22;10873;51.132;16.848;2024-02-04T07:02:43;23.70;48.80
21425;DHT22;10873;51.132;16.848;2024-02-04T07:05:09;23.70;48.70
21425;DHT22;10873;51.132;16.848;2024-02-04T07:07:36;23.60;48.50
21425;DHT22;10873;51.132;16.848;2024-02-04T07:10:02;23.60;48.60
21425;DHT22;10873;51.132;16.848;2024-02-04T07:12:28;23.60;49.20
21425;DHT22;10873;51.132;16.848;2024-02-04T07:14:54;23.60;50.30
21425;DHT22;10873;51.132;16.848;2024-02-04T07:17:22;23.60;50.50
21425;DHT22;10873;51.132;16.848;2024-02-04T07:19:48;23.60;50.30
21425;DHT22;10873;51.132;16.848;2024-02-04T07:22:14;23.60;50.10
21425;DHT22;10873;51.132;16.848;2024-02-04T07:24:40;23.60;49.90
21425;DHT22;10873;51.132;16.848;2024-02-04T07:27:06;23.60;49.60
21425;DHT22;10873;51.132;16.848;2024-02-04T07:29:32;23.60;49.50
21425;DHT22;10873;51.132;16.848;2024-02-04T07:31:58;23.60;49.40
21425;DHT22;10873;51.132;16.848;2024-02-04T07:34:25;23.60;49.30
21425;DHT22;10873;51.132;16.848;2024-02-04T07:36:51;23.60;49.30
21425;DHT22;10873;51.132;16.848;2024-02-04T07:39:18;23.60;49.20
21425;DHT22;10873;51.132;16.848;2024-02-04T07:41:44;23.60;49.20
21425;DHT22;10873;51.132;16.848;2024-02-04T07:44:10;23.60;49.20
21425;DHT22;10873;51.132;16.848;2024-02-04T07:46:36;23.60;49.30
21425;DHT22;10873;51.132;16.848;2024-02-04T07:49:02;23.60;49.30
21425;DHT22;10873;51.132;16.848;2024-02-04T07:51:29;23.60;49.30
21425;DHT22;10873;51.132;16.848;2024-02-04T07:53:56;23.60;49.30
21425;DHT22;10873;51.132;16.848;2024-02-04T07:56:22;23.60;49.20
21425;DHT22;10873;51.132;16.848;2024-02-04T07:58:48;23.60;49.20
21425;DHT22;10873;51.132;16.848;2024-02-04T08:01:14;23.60;49.10
21425;DHT22;10873;51.132;16.848;2024-02-04T08:03:40;23.60;49.00
21425;DHT22;10873;51.132;16.848;2024-02-04T08:06:06;23.70;49.00
21425;DHT22;10873;51.132;16.848;2024-02-04T08:08:34;23.70;48.80
21425;DHT22;10873;51.132;16.848;2024-02-04T08:11:00;23.70;48.80
21425;DHT22;10873;51.132;16.848;2024-02-04T08:13:26;23.70;48.70
21425;DHT22;10873;51.132;16.848;2024-02-04T08:15:52;23.70;48.60
21425;DHT22;10873;51.132;16.848;2024-02-04T08:18:18;23.70;48.50
21425;DHT22;10873;51.132;16.848;2024-02-04T08:20:44;23.70;48.50
21425;DHT22;10873;51.132;16.848;2024-02-04T08:23:10;23.70;48.50
21425;DHT22;10873;51.132;16.848;2024-02-04T08:25:37;23.70;48.50
21425;DHT22;10873;51.132;16.848;2024-02-04T08:28:04;23.70;48.50
21425;DHT22;10873;51.132;16.848;2024-02-04T08:30:30;23.70;48.50
21425;DHT22;10873;51.132;16.848;2024-02-04T08:32:57;23.70;48.40
21425;DHT22;10873;51.132;16.848;2024-02-04T08:35:23;23.70;48.50
21425;DHT22;10873;51.132;16.848;2024-02-04T08:37:49;23.70;48.60
21425;DHT22;10873;51.132;16.848;2024-02-04T08:40:15;23.70;48.80
21425;DHT22;10873;51.132;16.848;2024-02-04T08:42:42;23.70;49.00
21425;DHT22;10873;51.132;16.848;2024-02-04T08:45:09;23.70;49.20
21425;DHT22;10873;51.132;16.848;2024-02-04T08:47:36;23.70;49.40
21425;DHT22;10873;51.132;16.848;2024-02-04T08:50:02;23.70;50.00
21425;DHT22;10873;51.132;16.848;2024-02-04T08:52:28;23.70;51.00
21425;DHT22;10873;51.132;16.848;2024-02-04T08:54:54;23.70;51.20
21425;DHT22;10873;51.132;16.848;2024-02-04T08:57:20;23.70;51.30
21425;DHT22;10873;51.132;16.848;2024-02-04T08:59:47;23.70;51.20
21425;DHT22;10873;51.132;16.848;2024-02-04T09:02:14;23.70;51.00
21425;DHT22;10873;51.132;16.848;2024-02-04T09:04:40;23.70;50.90
21425;DHT22;10873;51.132;16.848;2024-02-04T09:07:06;23.60;50.60
21425;DHT22;10873;51.132;16.848;2024-02-04T09:09:32;23.60;50.50
21425;DHT22;10873;51.132;16.848;2024-02-04T09:11:59;23.60;50.30
21425;DHT22;10873;51.132;16.848;2024-02-04T09:14:24;23.60;50.20
21425;DHT22;10873;51.132;16.848;2024-02-04T09:16:52;23.60;50.10
21425;DHT22;10873;51.132;16.848;2024-02-04T09:19:18;23.60;50.00
21425;DHT22;10873;51.132;16.848;2024-02-04T09:21:44;23.60;49.90
21425;DHT22;10873;51.132;16.848;2024-02-04T09:24:10;23.60;49.90
21425;DHT22;10873;51.132;16.848;2024-02-04T09:26:37;23.60;49.90
21425;DHT22;10873;51.132;16.848;2024-02-04T09:29:03;23.60;49.90
21425;DHT22;10873;51.132;16.848;2024-02-04T09:31:29;23.60;49.80
21425;DHT22;10873;51.132;16.848;2024-02-04T09:33:56;23.60;49.70
21425;DHT22;10873;51.132;16.848;2024-02-04T09:36:23;23.60;49.60
21425;DHT22;10873;51.132;16.848;2024-02-04T09:38:49;23.60;49.50
21425;DHT22;10873;51.132;16.848;2024-02-04T09:41:15;23.60;50.10
21425;DHT22;10873;51.132;16.848;2024-02-04T09:43:41;23.60;49.50
21425;DHT22;10873;51.132;16.848;2024-02-04T09:46:08;23.60;49.50
21425;DHT22;10873;51.132;16.848;2024-02-04T09:48:36;23.60;49.50
21425;DHT22;10873;51.132;16.848;2024-02-04T09:51:05;23.60;49.50
21425;DHT22;10873;51.132;16.848;2024-02-04T09:53:33;23.60;49.50
21425;DHT22;10873;51.132;16.848;2024-02-04T09:56:01;23.60;49.50
21425;DHT22;10873;51.132;16.848;2024-02-04T09:58:27;23.60;49.50
21425;DHT22;10873;51.132;16.848;2024-02-04T10:00:54;23.60;49.50
21425;DHT22;10873;51.132;16.848;2024-02-04T10:03:20;23.60;49.50
21425;DHT22;10873;51.132;16.848;2024-02-04T10:05:47;23.60;49.50
21425;DHT22;10873;51.132;16.848;2024-02-04T10:08:15;23.60;49.50
21425;DHT22;10873;51.132;16.848;2024-02-04T10:10:41;23.60;49.60
21425;DHT22;10873;51.132;16.848;2024-02-04T10:13:08;23.70;49.60
21425;DHT22;10873;51.132;16.848;2024-02-04T10:15:35;23.60;49.70
21425;DHT22;10873;51.132;16.848;2024-02-04T10:18:03;23.70;51.10
21425;DHT22;10873;51.132;16.848;2024-02-04T10:20:30;23.70;52.20
21425;DHT22;10873;51.132;16.848;2024-02-04T10:22:56;23.70;52.50
21425;DHT22;10873;51.132;16.848;2024-02-04T10:25:23;23.70;52.80
21425;DHT22;10873;51.132;16.848;2024-02-04T10:27:49;23.70;52.90
21425;DHT22;10873;51.132;16.848;2024-02-04T10:30:15;23.70;52.80
21425;DHT22;10873;51.132;16.848;2024-02-04T10:32:44;23.70;54.00
21425;DHT22;10873;51.132;16.848;2024-02-04T10:35:11;23.80;55.50
21425;DHT22;10873;51.132;16.848;2024-02-04T10:37:37;23.70;56.50
21425;DHT22;10873;51.132;16.848;2024-02-04T10:40:04;23.90;59.90
21425;DHT22;10873;51.132;16.848;2024-02-04T10:42:32;24.10;60.20
21425;DHT22;10873;51.132;16.848;2024-02-04T10:44:59;24.60;60.70
21425;DHT22;10873;51.132;16.848;2024-02-04T10:47:30;25.00;60.60
21425;DHT22;10873;51.132;16.848;2024-02-04T10:49:59;25.60;60.30
21425;DHT22;10873;51.132;16.848;2024-02-04T10:52:27;26.00;60.00
21425;DHT22;10873;51.132;16.848;2024-02-04T10:54:53;26.50;59.40
21425;DHT22;10873;51.132;16.848;2024-02-04T10:57:21;26.90;58.50
21425;DHT22;10873;51.132;16.848;2024-02-04T10:59:51;27.30;58.10
21425;DHT22;10873;51.132;16.848;2024-02-04T11:02:18;27.60;57.10
21425;DHT22;10873;51.132;16.848;2024-02-04T11:04:46;27.90;56.40
21425;DHT22;10873;51.132;16.848;2024-02-04T11:07:14;28.20;55.70
21425;DHT22;10873;51.132;16.848;2024-02-04T11:09:41;28.40;55.00
21425;DHT22;10873;51.132;16.848;2024-02-04T11:12:11;28.70;54.40
21425;DHT22;10873;51.132;16.848;2024-02-04T11:14:41;28.90;53.80
21425;DHT22;10873;51.132;16.848;2024-02-04T11:20:24;29.40;52.70
21425;DHT22;10873;51.132;16.848;2024-02-04T11:23:10;29.60;52.30
21425;DHT22;10873;51.132;16.848;2024-02-04T11:25:44;29.80;52.10
21425;DHT22;10873;51.132;16.848;2024-02-04T11:28:11;29.90;51.80
21425;DHT22;10873;51.132;16.848;2024-02-04T11:30:38;30.10;51.70
21425;DHT22;10873;51.132;16.848;2024-02-04T11:33:06;30.20;51.50
21425;DHT22;10873;51.132;16.848;2024-02-04T11:35:33;30.40;51.40
21425;DHT22;10873;51.132;16.848;2024-02-04T11:37:59;30.50;51.00
21425;DHT22;10873;51.132;16.848;2024-02-04T11:40:30;30.60;50.80
21425;DHT22;10873;51.132;16.848;2024-02-04T11:43:04;30.70;51.70
21425;DHT22;10873;51.132;16.848;2024-02-04T11:45:31;30.30;53.50
21425;DHT22;10873;51.132;16.848;2024-02-04T11:48:00;29.90;53.10
21425;DHT22;10873;51.132;16.848;2024-02-04T11:50:30;29.50;53.40
21425;DHT22;10873;51.132;16.848;2024-02-04T11:53:05;29.10;53.10
21425;DHT22;10873;51.132;16.848;2024-02-04T11:55:32;28.80;53.50
21425;DHT22;10873;51.132;16.848;2024-02-04T11:57:58;28.60;53.40
21425;DHT22;10873;51.132;16.848;2024-02-04T12:00:25;28.40;51.90
21425;DHT22;10873;51.132;16.848;2024-02-04T12:03:00;28.20;51.50
21425;DHT22;10873;51.132;16.848;2024-02-04T12:05:30;27.90;51.30
21425;DHT22;10873;51.132;16.848;2024-02-04T12:07:57;27.80;51.20
21425;DHT22;10873;51.132;16.848;2024-02-04T12:10:23;27.60;51.00
21425;DHT22;10873;51.132;16.848;2024-02-04T12:12:50;27.50;50.80
21425;DHT22;10873;51.132;16.848;2024-02-04T12:15:17;27.30;50.60
21425;DHT22;10873;51.132;16.848;2024-02-04T12:17:43;27.20;50.50
21425;DHT22;10873;51.132;16.848;2024-02-04T12:20:10;27.10;50.30
21425;DHT22;10873;51.132;16.848;2024-02-04T12:22:37;27.00;50.10
21425;DHT22;10873;51.132;16.848;2024-02-04T12:25:05;26.90;50.10
21425;DHT22;10873;51.132;16.848;2024-02-04T12:27:31;26.80;50.10
21425;DHT22;10873;51.132;16.848;2024-02-04T12:29:58;26.70;50.10
21425;DHT22;10873;51.132;16.848;2024-02-04T12:32:25;26.60;49.90
21425;DHT22;10873;51.132;16.848;2024-02-04T12:34:52;26.60;49.80
21425;DHT22;10873;51.132;16.848;2024-02-04T12:37:20;26.50;49.80
21425;DHT22;10873;51.132;16.848;2024-02-04T12:39:47;26.40;49.70
21425;DHT22;10873;51.132;16.848;2024-02-04T12:42:15;26.40;49.80
21425;DHT22;10873;51.132;16.848;2024-02-04T12:44:44;26.30;50.50
21425;DHT22;10873;51.132;16.848;2024-02-04T12:47:10;26.30;50.00
21425;DHT22;10873;51.132;16.848;2024-02-04T12:49:37;26.20;50.10
21425;DHT22;10873;51.132;16.848;2024-02-04T12:52:06;26.10;50.10
21425;DHT22;10873;51.132;16.848;2024-02-04T12:54:40;26.10;50.20
21425;DHT22;10873;51.132;16.848;2024-02-04T12:57:08;26.00;50.20
21425;DHT22;10873;51.132;16.848;2024-02-04T12:59:37;26.00;50.30
21425;DHT22;10873;51.132;16.848;2024-02-04T13:02:05;26.00;51.00
21425;DHT22;10873;51.132;16.848;2024-02-04T13:04:35;25.90;50.40
21425;DHT22;10873;51.132;16.848;2024-02-04T13:07:01;25.90;50.40
21425;DHT22;10873;51.132;16.848;2024-02-04T13:09:27;25.90;50.50
21425;DHT22;10873;51.132;16.848;2024-02-04T13:12:02;25.80;50.40
21425;DHT22;10873;51.132;16.848;2024-02-04T13:14:31;25.80;50.50
21425;DHT22;10873;51.132;16.848;2024-02-04T13:16:57;25.70;50.60
21425;DHT22;10873;51.132;16.848;2024-02-04T13:19:24;25.70;50.70
21425;DHT22;10873;51.132;16.848;2024-02-04T13:21:50;25.70;50.70
21425;DHT22;10873;51.132;16.848;2024-02-04T13:24:16;25.60;50.70
21425;DHT22;10873;51.132;16.848;2024-02-04T13:26:42;25.60;50.80
21425;DHT22;10873;51.132;16.848;2024-02-04T13:29:08;25.60;50.80
21425;DHT22;10873;51.132;16.848;2024-02-04T13:31:35;25.60;50.80
21425;DHT22;10873;51.132;16.848;2024-02-04T13:34:01;25.50;50.70
21425;DHT22;10873;51.132;16.848;2024-02-04T13:36:29;25.50;50.70
21425;DHT22;10873;51.132;16.848;2024-02-04T13:38:56;25.50;50.80
21425;DHT22;10873;51.132;16.848;2024-02-04T13:41:21;25.50;50.80
21425;DHT22;10873;51.132;16.848;2024-02-04T13:43:48;25.50;50.90
21425;DHT22;10873;51.132;16.848;2024-02-04T13:46:13;25.50;50.90
21425;DHT22;10873;51.132;16.848;2024-02-04T13:48:41;25.50;50.90
21425;DHT22;10873;51.132;16.848;2024-02-04T13:51:07;25.40;50.90
21425;DHT22;10873;51.132;16.848;2024-02-04T13:53:33;25.40;50.90
21425;DHT22;10873;51.132;16.848;2024-02-04T13:56:01;25.40;50.90
21425;DHT22;10873;51.132;16.848;2024-02-04T13:58:27;25.40;51.40
21425;DHT22;10873;51.132;16.848;2024-02-04T14:00:53;25.40;50.70
21425;DHT22;10873;51.132;16.848;2024-02-04T14:03:19;25.40;50.60
21425;DHT22;10873;51.132;16.848;2024-02-04T14:05:46;25.40;50.50
21425;DHT22;10873;51.132;16.848;2024-02-04T14:08:12;25.30;50.40
21425;DHT22;10873;51.132;16.848;2024-02-04T14:10:39;25.30;50.40
21425;DHT22;10873;51.132;16.848;2024-02-04T14:13:06;25.30;50.50
21425;DHT22;10873;51.132;16.848;2024-02-04T14:15:31;25.30;50.50
21425;DHT22;10873;51.132;16.848;2024-02-04T14:17:59;25.20;50.60
21425;DHT22;10873;51.132;16.848;2024-02-04T14:20:25;25.20;50.70
21425;DHT22;10873;51.132;16.848;2024-02-04T14:22:52;25.20;50.70
21425;DHT22;10873;51.132;16.848;2024-02-04T14:25:18;25.10;50.80
21425;DHT22;10873;51.132;16.848;2024-02-04T14:27:45;25.10;50.80
21425;DHT22;10873;51.132;16.848;2024-02-04T14:30:12;25.10;50.90
21425;DHT22;10873;51.132;16.848;2024-02-04T14:32:38;25.00;51.00
21425;DHT22;10873;51.132;16.848;2024-02-04T14:35:05;25.00;51.00
21425;DHT22;10873;51.132;16.848;2024-02-04T14:37:31;25.00;51.10
21425;DHT22;10873;51.132;16.848;2024-02-04T14:40:02;25.00;51.30
21425;DHT22;10873;51.132;16.848;2024-02-04T14:42:30;24.90;51.50
21425;DHT22;10873;51.132;16.848;2024-02-04T14:44:56;24.90;51.50
21425;DHT22;10873;51.132;16.848;2024-02-04T14:47:22;24.90;51.50
21425;DHT22;10873;51.132;16.848;2024-02-04T14:49:48;24.90;51.50
21425;DHT22;10873;51.132;16.848;2024-02-04T14:52:14;24.80;51.40
21425;DHT22;10873;51.132;16.848;2024-02-04T14:54:43;24.80;51.30
21425;DHT22;10873;51.132;16.848;2024-02-04T14:57:11;24.80;51.10
21425;DHT22;10873;51.132;16.848;2024-02-04T14:59:36;24.80;51.00
21425;DHT22;10873;51.132;16.848;2024-02-04T15:02:03;24.80;50.90
21425;DHT22;10873;51.132;16.848;2024-02-04T15:04:31;24.70;50.60
21425;DHT22;10873;51.132;16.848;2024-02-04T15:06:58;24.70;50.40
21425;DHT22;10873;51.132;16.848;2024-02-04T15:09:23;24.70;50.20
21425;DHT22;10873;51.132;16.848;2024-02-04T15:11:50;24.60;50.00
21425;DHT22;10873;51.132;16.848;2024-02-04T15:14:18;24.60;49.90
21425;DHT22;10873;51.132;16.848;2024-02-04T15:16:45;24.60;49.80